sensor_id;sensor_type;location;lat;lon;timestamp;pressure;altitude;pressure_sealevel;temperature;humidity
20009;BME280;10165;42.662;23.260;2023-02-04T00:00:05;93903.38;;;4.48;52.91
20009;BME280;10165;42.662;23.260;2023-02-04T00:02:33;93875.63;;;3.94;52.43
20009;BME280;10165;42.662;23.260;2023-02-04T00:05:00;93873.31;;;4.18;52.37
20009;BME280;10165;42.662;23.260;2023-02-04T00:07:27;93876.31;;;4.43;52.84
20009;BME280;10165;42.662;23.260;2023-02-04T00:09:53;93878.19;;;4.25;54.12
20009;BME280;10165;42.662;23.260;2023-02-04T00:12:20;93866.03;;;4.58;53.75
20009;BME280;10165;42.662;23.260;2023-02-04T00:14:47;93868.09;;;3.22;58.80
20009;BME280;10165;42.662;23.260;2023-02-04T00:17:14;93865.94;;;3.24;61.30
20009;BME280;10165;42.662;23.260;2023-02-04T00:19:41;93861.31;;;3.38;61.32
20009;BME280;10165;42.662;23.260;2023-02-04T00:22:08;93849.22;;;2.98;63.26
20009;BME280;10165;42.662;23.260;2023-02-04T00:24:35;93853.25;;;3.04;64.21
20009;BME280;10165;42.662;23.260;2023-02-04T00:27:03;93838.22;;;3.44;62.85
20009;BME280;10165;42.662;23.260;2023-02-04T00:29:30;93837.06;;;2.66;66.10
20009;BME280;10165;42.662;23.260;2023-02-04T00:31:57;93839.22;;;3.17;64.56
20009;BME280;10165;42.662;23.260;2023-02-04T00:34:24;93846.97;;;2.92;66.09
20009;BME280;10165;42.662;23.260;2023-02-04T00:36:51;93858.34;;;3.31;65.23
20009;BME280;10165;42.662;23.260;2023-02-04T00:39:17;93843.38;;;3.18;66.25
20009;BME280;10165;42.662;23.260;2023-02-04T00:41:44;93809.25;;;2.82;66.83
20009;BME280;10165;42.662;23.260;2023-02-04T00:44:11;93806.41;;;3.58;60.90
20009;BME280;10165;42.662;23.260;2023-02-04T00:46:42;93846.50;;;3.68;61.21
20009;BME280;10165;42.662;23.260;2023-02-04T00:49:09;93822.19;;;4.31;60.48
20009;BME280;10165;42.662;23.260;2023-02-04T00:51:37;93785.34;;;4.44;57.81
20009;BME280;10165;42.662;23.260;2023-02-04T00:54:05;93784.34;;;4.65;56.59
20009;BME280;10165;42.662;23.260;2023-02-04T00:56:34;93817.50;;;4.46;56.70
20009;BME280;10165;42.662;23.260;2023-02-04T00:59:00;93820.47;;;4.18;60.33
20009;BME280;10165;42.662;23.260;2023-02-04T01:01:27;93808.69;;;4.33;59.12
20009;BME280;10165;42.662;23.260;2023-02-04T01:03:54;93806.16;;;3.85;62.38
20009;BME280;10165;42.662;23.260;2023-02-04T01:06:20;93810.88;;;3.40;65.27
20009;BME280;10165;42.662;23.260;2023-02-04T01:08:47;93797.78;;;4.00;63.84
20009;BME280;10165;42.662;23.260;2023-02-04T01:11:14;93794.63;;;4.50;62.38
20009;BME280;10165;42.662;23.260;2023-02-04T01:13:41;93791.88;;;4.20;63.52
20009;BME280;10165;42.662;23.260;2023-02-04T01:16:08;93780.66;;;1.78;72.84
20009;BME280;10165;42.662;23.260;2023-02-04T01:18:35;93778.63;;;2.20;70.81
20009;BME280;10165;42.662;23.260;2023-02-04T01:21:02;93794.94;;;1.23;74.86
20009;BME280;10165;42.662;23.260;2023-02-04T01:23:29;93805.69;;;1.26;76.24
20009;BME280;10165;42.662;23.260;2023-02-04T01:25:55;93783.50;;;1.68;75.14
20009;BME280;10165;42.662;23.260;2023-02-04T01:28:22;93758.41;;;2.29;73.41
20009;BME280;10165;42.662;23.260;2023-02-04T01:30:49;93759.72;;;2.71;71.40
20009;BME280;10165;42.662;23.260;2023-02-04T01:33:16;93751.88;;;2.88;70.02
20009;BME280;10165;42.662;23.260;2023-02-04T01:35:42;93753.19;;;1.93;73.71
20009;BME280;10165;42.662;23.260;2023-02-04T01:38:09;93760.06;;;3.26;69.80
20009;BME280;10165;42.662;23.260;2023-02-04T01:40:36;93752.66;;;2.88;69.84
20009;BME280;10165;42.662;23.260;2023-02-04T01:43:02;93734.91;;;1.52;75.48
20009;BME280;10165;42.662;23.260;2023-02-04T01:45:30;93751.13;;;2.34;72.80
20009;BME280;10165;42.662;23.260;2023-02-04T01:48:01;93753.72;;;2.79;70.32
20009;BME280;10165;42.662;23.260;2023-02-04T01:50:29;93743.31;;;1.40;74.33
20009;BME280;10165;42.662;23.260;2023-02-04T01:52:56;93759.50;;;2.59;71.41
20009;BME280;10165;42.662;23.260;2023-02-04T01:55:26;93742.84;;;1.25;75.41
20009;BME280;10165;42.662;23.260;2023-02-04T01:57:53;93740.09;;;1.43;76.91
20009;BME280;10165;42.662;23.260;2023-02-04T02:00:27;93737.78;;;2.31;73.72
20009;BME280;10165;42.662;23.260;2023-02-04T02:02:56;93740.97;;;3.20;69.30
20009;BME280;10165;42.662;23.260;2023-02-04T02:05:26;93725.22;;;2.98;70.02
20009;BME280;10165;42.662;23.260;2023-02-04T02:07:56;93734.50;;;3.44;67.36
20009;BME280;10165;42.662;23.260;2023-02-04T02:10:24;93720.22;;;2.49;71.46
20009;BME280;10165;42.662;23.260;2023-02-04T02:12:52;93704.47;;;3.05;66.79
20009;BME280;10165;42.662;23.260;2023-02-04T02:15:20;93696.59;;;4.08;62.98
20009;BME280;10165;42.662;23.260;2023-02-04T02:17:47;93687.75;;;4.97;60.37
20009;BME280;10165;42.662;23.260;2023-02-04T02:20:16;93692.00;;;4.90;59.05
20009;BME280;10165;42.662;23.260;2023-02-04T02:23:03;93720.81;;;5.41;56.68
20009;BME280;10165;42.662;23.260;2023-02-04T02:25:32;93682.06;;;5.37;56.12
20009;BME280;10165;42.662;23.260;2023-02-04T02:27:59;93692.25;;;5.26;56.02
20009;BME280;10165;42.662;23.260;2023-02-04T02:30:27;93673.28;;;5.45;56.27
20009;BME280;10165;42.662;23.260;2023-02-04T02:32:55;93661.41;;;5.09;55.94
20009;BME280;10165;42.662;23.260;2023-02-04T02:35:22;93652.91;;;5.66;55.40
20009;BME280;10165;42.662;23.260;2023-02-04T02:37:49;93631.69;;;5.45;55.12
20009;BME280;10165;42.662;23.260;2023-02-04T02:40:17;93653.34;;;6.09;53.94
20009;BME280;10165;42.662;23.260;2023-02-04T02:42:48;93646.50;;;5.67;55.42
20009;BME280;10165;42.662;23.260;2023-02-04T02:45:25;93620.53;;;5.40;55.06
20009;BME280;10165;42.662;23.260;2023-02-04T02:47:53;93638.94;;;5.57;54.65
20009;BME280;10165;42.662;23.260;2023-02-04T02:50:24;93630.75;;;5.50;54.91
20009;BME280;10165;42.662;23.260;2023-02-04T02:52:52;93635.25;;;5.70;55.97
20009;BME280;10165;42.662;23.260;2023-02-04T02:55:22;93637.38;;;4.56;58.91
20009;BME280;10165;42.662;23.260;2023-02-04T02:57:50;93618.97;;;5.18;57.48
20009;BME280;10165;42.662;23.260;2023-02-04T03:00:23;93621.25;;;4.99;57.73
20009;BME280;10165;42.662;23.260;2023-02-04T03:03:01;93634.50;;;4.69;58.85
20009;BME280;10165;42.662;23.260;2023-02-04T03:05:33;93622.44;;;4.89;57.54
20009;BME280;10165;42.662;23.260;2023-02-04T03:08:01;93609.38;;;4.84;57.76
20009;BME280;10165;42.662;23.260;2023-02-04T03:10:29;93621.16;;;5.37;57.23
20009;BME280;10165;42.662;23.260;2023-02-04T03:12:56;93610.34;;;5.83;55.05
20009;BME280;10165;42.662;23.260;2023-02-04T03:15:25;93635.53;;;4.86;56.92
20009;BME280;10165;42.662;23.260;2023-02-04T03:17:52;93630.81;;;4.62;58.23
20009;BME280;10165;42.662;23.260;2023-02-04T03:20:23;93628.47;;;4.98;57.02
20009;BME280;10165;42.662;23.260;2023-02-04T03:22:51;93621.63;;;5.18;57.06
20009;BME280;10165;42.662;23.260;2023-02-04T03:25:18;93619.72;;;6.01;54.57
20009;BME280;10165;42.662;23.260;2023-02-04T03:27:46;93591.63;;;5.88;53.77
20009;BME280;10165;42.662;23.260;2023-02-04T03:30:12;93632.41;;;5.96;54.04
20009;BME280;10165;42.662;23.260;2023-02-04T03:32:39;93623.00;;;5.86;54.29
20009;BME280;10165;42.662;23.260;2023-02-04T03:35:07;93638.50;;;5.55;55.12
20009;BME280;10165;42.662;23.260;2023-02-04T03:37:34;93635.50;;;5.77;54.37
20009;BME280;10165;42.662;23.260;2023-02-04T03:40:01;93646.75;;;6.28;53.57
20009;BME280;10165;42.662;23.260;2023-02-04T03:42:28;93620.78;;;5.47;55.12
20009;BME280;10165;42.662;23.260;2023-02-04T03:44:54;93607.56;;;5.05;56.24
20009;BME280;10165;42.662;23.260;2023-02-04T03:47:21;93601.22;;;4.98;56.80
20009;BME280;10165;42.662;23.260;2023-02-04T03:49:47;93608.38;;;5.18;56.21
20009;BME280;10165;42.662;23.260;2023-02-04T03:52:14;93612.25;;;5.41;55.50
20009;BME280;10165;42.662;23.260;2023-02-04T03:54:41;93602.63;;;4.95;56.10
20009;BME280;10165;42.662;23.260;2023-02-04T03:57:07;93595.50;;;4.87;56.94
20009;BME280;10165;42.662;23.260;2023-02-04T03:59:35;93580.88;;;5.10;56.39
20009;BME280;10165;42.662;23.260;2023-02-04T04:02:02;93573.00;;;5.43;55.31
20009;BME280;10165;42.662;23.260;2023-02-04T04:04:29;93572.16;;;5.10;56.56
20009;BME280;10165;42.662;23.260;2023-02-04T04:06:55;93575.06;;;4.96;56.95
20009;BME280;10165;42.662;23.260;2023-02-04T04:09:22;93560.78;;;5.30;56.60
20009;BME280;10165;42.662;23.260;2023-02-04T04:11:49;93545.53;;;4.94;58.20
20009;BME280;10165;42.662;23.260;2023-02-04T04:14:15;93554.03;;;5.00;58.41
20009;BME280;10165;42.662;23.260;2023-02-04T04:16:42;93535.75;;;5.27;57.24
20009;BME280;10165;42.662;23.260;2023-02-04T04:19:08;93534.59;;;4.96;60.02
20009;BME280;10165;42.662;23.260;2023-02-04T04:21:35;93523.31;;;4.87;61.47
20009;BME280;10165;42.662;23.260;2023-02-04T04:24:02;93525.41;;;5.35;59.24
20009;BME280;10165;42.662;23.260;2023-02-04T04:26:28;93551.56;;;5.36;58.57
20009;BME280;10165;42.662;23.260;2023-02-04T04:28:55;93559.34;;;4.41;62.15
20009;BME280;10165;42.662;23.260;2023-02-04T04:31:22;93545.03;;;4.42;62.69
20009;BME280;10165;42.662;23.260;2023-02-04T04:33:48;93560.19;;;4.62;60.59
20009;BME280;10165;42.662;23.260;2023-02-04T04:36:15;93564.03;;;4.94;59.19
20009;BME280;10165;42.662;23.260;2023-02-04T04:38:42;93560.69;;;4.56;61.16
20009;BME280;10165;42.662;23.260;2023-02-04T04:41:08;93561.91;;;4.58;60.91
20009;BME280;10165;42.662;23.260;2023-02-04T04:43:35;93563.88;;;4.70;61.61
20009;BME280;10165;42.662;23.260;2023-02-04T04:46:01;93587.50;;;4.96;61.41
20009;BME280;10165;42.662;23.260;2023-02-04T04:48:28;93598.44;;;4.94;60.01
20009;BME280;10165;42.662;23.260;2023-02-04T04:50:55;93579.34;;;4.80;61.33
20009;BME280;10165;42.662;23.260;2023-02-04T04:53:21;93588.13;;;5.01;60.45
20009;BME280;10165;42.662;23.260;2023-02-04T04:55:48;93596.00;;;4.80;60.85
20009;BME280;10165;42.662;23.260;2023-02-04T04:58:14;93598.84;;;4.75;61.92
20009;BME280;10165;42.662;23.260;2023-02-04T05:00:41;93587.78;;;5.03;61.22
20009;BME280;10165;42.662;23.260;2023-02-04T05:03:08;93590.28;;;4.78;62.54
20009;BME280;10165;42.662;23.260;2023-02-04T05:05:35;93592.19;;;4.40;63.75
20009;BME280;10165;42.662;23.260;2023-02-04T05:08:06;93589.03;;;4.47;65.07
20009;BME280;10165;42.662;23.260;2023-02-04T05:10:36;93580.50;;;4.41;66.54
20009;BME280;10165;42.662;23.260;2023-02-04T05:13:03;93597.38;;;4.28;67.19
20009;BME280;10165;42.662;23.260;2023-02-04T05:15:29;93588.47;;;3.86;69.16
20009;BME280;10165;42.662;23.260;2023-02-04T05:17:56;93596.63;;;4.10;68.60
20009;BME280;10165;42.662;23.260;2023-02-04T05:20:24;93596.97;;;4.47;68.50
20009;BME280;10165;42.662;23.260;2023-02-04T05:22:51;93608.44;;;4.21;67.93
20009;BME280;10165;42.662;23.260;2023-02-04T05:25:17;93617.47;;;4.03;70.10
20009;BME280;10165;42.662;23.260;2023-02-04T05:27:44;93618.25;;;4.04;69.65
20009;BME280;10165;42.662;23.260;2023-02-04T05:30:12;93621.97;;;4.11;69.67
20009;BME280;10165;42.662;23.260;2023-02-04T05:32:40;93613.22;;;4.28;69.65
20009;BME280;10165;42.662;23.260;2023-02-04T05:35:07;93623.78;;;4.37;70.37
20009;BME280;10165;42.662;23.260;2023-02-04T05:37:34;93651.31;;;4.27;69.41
20009;BME280;10165;42.662;23.260;2023-02-04T05:40:00;93669.91;;;3.75;69.98
20009;BME280;10165;42.662;23.260;2023-02-04T05:42:27;93673.72;;;4.12;69.30
20009;BME280;10165;42.662;23.260;2023-02-04T05:44:54;93675.63;;;4.58;68.36
20009;BME280;10165;42.662;23.260;2023-02-04T05:47:20;93684.16;;;4.17;68.17
20009;BME280;10165;42.662;23.260;2023-02-04T05:49:47;93685.72;;;4.01;68.26
20009;BME280;10165;42.662;23.260;2023-02-04T05:52:14;93691.91;;;4.69;66.62
20009;BME280;10165;42.662;23.260;2023-02-04T05:54:43;93685.38;;;4.20;67.40
20009;BME280;10165;42.662;23.260;2023-02-04T05:57:13;93679.59;;;4.26;67.05
20009;BME280;10165;42.662;23.260;2023-02-04T05:59:39;93680.16;;;3.77;69.34
20009;BME280;10165;42.662;23.260;2023-02-04T06:02:06;93656.19;;;3.99;68.11
20009;BME280;10165;42.662;23.260;2023-02-04T06:04:33;93637.72;;;3.91;68.14
20009;BME280;10165;42.662;23.260;2023-02-04T06:06:59;93629.19;;;3.85;68.67
20009;BME280;10165;42.662;23.260;2023-02-04T06:09:28;93620.81;;;3.66;67.45
20009;BME280;10165;42.662;23.260;2023-02-04T06:11:55;93636.84;;;3.52;68.44
20009;BME280;10165;42.662;23.260;2023-02-04T06:14:22;93648.78;;;3.67;68.19
20009;BME280;10165;42.662;23.260;2023-02-04T06:16:49;93645.22;;;3.28;70.46
20009;BME280;10165;42.662;23.260;2023-02-04T06:19:16;93654.97;;;3.28;68.20
20009;BME280;10165;42.662;23.260;2023-02-04T06:21:43;93658.25;;;3.51;68.70
20009;BME280;10165;42.662;23.260;2023-02-04T06:24:09;93670.06;;;3.79;66.31
20009;BME280;10165;42.662;23.260;2023-02-04T06:26:36;93679.47;;;4.14;65.03
20009;BME280;10165;42.662;23.260;2023-02-04T06:29:03;93668.31;;;4.00;65.66
20009;BME280;10165;42.662;23.260;2023-02-04T06:31:30;93661.66;;;3.94;66.80
20009;BME280;10165;42.662;23.260;2023-02-04T06:33:57;93664.09;;;4.16;66.82
20009;BME280;10165;42.662;23.260;2023-02-04T06:36:24;93664.25;;;4.11;64.99
20009;BME280;10165;42.662;23.260;2023-02-04T06:38:50;93678.28;;;3.95;63.95
20009;BME280;10165;42.662;23.260;2023-02-04T06:41:17;93679.44;;;4.40;62.62
20009;BME280;10165;42.662;23.260;2023-02-04T06:43:43;93677.25;;;4.33;62.15
20009;BME280;10165;42.662;23.260;2023-02-04T06:46:10;93691.09;;;4.39;62.16
20009;BME280;10165;42.662;23.260;2023-02-04T06:48:37;93682.19;;;4.52;61.10
20009;BME280;10165;42.662;23.260;2023-02-04T06:51:04;93680.78;;;4.93;60.48
20009;BME280;10165;42.662;23.260;2023-02-04T06:53:31;93669.97;;;4.68;61.27
20009;BME280;10165;42.662;23.260;2023-02-04T06:55:57;93680.97;;;4.41;62.13
20009;BME280;10165;42.662;23.260;2023-02-04T06:58:24;93672.47;;;4.73;62.50
20009;BME280;10165;42.662;23.260;2023-02-04T07:00:50;93658.50;;;5.23;59.61
20009;BME280;10165;42.662;23.260;2023-02-04T07:03:17;93664.03;;;4.33;61.22
20009;BME280;10165;42.662;23.260;2023-02-04T07:05:44;93662.03;;;4.22;62.15
20009;BME280;10165;42.662;23.260;2023-02-04T07:08:10;93666.50;;;4.85;60.71
20009;BME280;10165;42.662;23.260;2023-02-04T07:10:37;93672.47;;;4.65;60.43
20009;BME280;10165;42.662;23.260;2023-02-04T07:13:04;93663.34;;;4.92;60.12
20009;BME280;10165;42.662;23.260;2023-02-04T07:15:30;93672.66;;;4.98;59.94
20009;BME280;10165;42.662;23.260;2023-02-04T07:17:57;93677.75;;;5.03;59.39
20009;BME280;10165;42.662;23.260;2023-02-04T07:20:24;93669.31;;;4.80;60.40
20009;BME280;10165;42.662;23.260;2023-02-04T07:22:50;93668.13;;;4.69;60.17
20009;BME280;10165;42.662;23.260;2023-02-04T07:25:17;93653.13;;;4.81;60.21
20009;BME280;10165;42.662;23.260;2023-02-04T07:27:44;93659.28;;;4.94;59.78
20009;BME280;10165;42.662;23.260;2023-02-04T07:30:11;93647.50;;;5.33;58.58
20009;BME280;10165;42.662;23.260;2023-02-04T07:32:38;93654.00;;;4.94;58.60
20009;BME280;10165;42.662;23.260;2023-02-04T07:35:05;93663.72;;;4.81;59.18
20009;BME280;10165;42.662;23.260;2023-02-04T07:37:32;93648.47;;;5.08;58.31
20009;BME280;10165;42.662;23.260;2023-02-04T07:39:58;93641.00;;;5.30;58.93
20009;BME280;10165;42.662;23.260;2023-02-04T07:42:25;93641.22;;;4.96;60.05
20009;BME280;10165;42.662;23.260;2023-02-04T07:44:52;93638.59;;;5.38;58.16
20009;BME280;10165;42.662;23.260;2023-02-04T07:47:18;93647.59;;;5.45;57.95
20009;BME280;10165;42.662;23.260;2023-02-04T07:49:45;93650.72;;;5.18;58.37
20009;BME280;10165;42.662;23.260;2023-02-04T07:52:12;93648.63;;;5.32;58.21
20009;BME280;10165;42.662;23.260;2023-02-04T07:54:38;93643.78;;;5.13;57.46
20009;BME280;10165;42.662;23.260;2023-02-04T07:57:05;93635.25;;;5.49;57.69
20009;BME280;10165;42.662;23.260;2023-02-04T07:59:31;93653.59;;;5.54;56.76
20009;BME280;10165;42.662;23.260;2023-02-04T08:01:58;93653.34;;;6.09;55.58
20009;BME280;10165;42.662;23.260;2023-02-04T08:04:25;93644.44;;;5.93;55.57
20009;BME280;10165;42.662;23.260;2023-02-04T08:06:51;93654.94;;;6.02;55.52
20009;BME280;10165;42.662;23.260;2023-02-04T08:09:18;93654.13;;;5.68;56.03
20009;BME280;10165;42.662;23.260;2023-02-04T08:11:45;93649.41;;;5.33;56.84
20009;BME280;10165;42.662;23.260;2023-02-04T08:14:11;93657.06;;;5.05;57.95
20009;BME280;10165;42.662;23.260;2023-02-04T08:16:38;93641.19;;;5.46;56.82
20009;BME280;10165;42.662;23.260;2023-02-04T08:19:05;93641.47;;;5.33;57.41
20009;BME280;10165;42.662;23.260;2023-02-04T08:21:31;93631.25;;;5.22;58.35
20009;BME280;10165;42.662;23.260;2023-02-04T08:23:58;93640.56;;;5.70;56.59
20009;BME280;10165;42.662;23.260;2023-02-04T08:26:25;93643.50;;;5.68;56.67
20009;BME280;10165;42.662;23.260;2023-02-04T08:28:51;93639.91;;;6.39;55.87
20009;BME280;10165;42.662;23.260;2023-02-04T08:31:18;93636.53;;;6.05;55.79
20009;BME280;10165;42.662;23.260;2023-02-04T08:33:45;93637.19;;;5.61;57.80
20009;BME280;10165;42.662;23.260;2023-02-04T08:36:11;93641.72;;;5.60;58.43
20009;BME280;10165;42.662;23.260;2023-02-04T08:38:38;93627.44;;;5.11;60.56
20009;BME280;10165;42.662;23.260;2023-02-04T08:41:06;93628.72;;;5.26;60.03
20009;BME280;10165;42.662;23.260;2023-02-04T08:43:33;93626.44;;;4.95;62.08
20009;BME280;10165;42.662;23.260;2023-02-04T08:45:59;93626.84;;;5.26;62.11
20009;BME280;10165;42.662;23.260;2023-02-04T08:48:26;93627.13;;;5.13;62.63
20009;BME280;10165;42.662;23.260;2023-02-04T08:50:53;93632.28;;;5.30;62.01
20009;BME280;10165;42.662;23.260;2023-02-04T08:53:19;93619.75;;;5.60;61.51
20009;BME280;10165;42.662;23.260;2023-02-04T08:55:46;93619.53;;;5.03;62.63
20009;BME280;10165;42.662;23.260;2023-02-04T08:58:12;93623.03;;;5.15;61.00
20009;BME280;10165;42.662;23.260;2023-02-04T09:00:39;93619.69;;;4.77;63.04
20009;BME280;10165;42.662;23.260;2023-02-04T09:03:06;93632.28;;;5.30;62.50
20009;BME280;10165;42.662;23.260;2023-02-04T09:05:33;93610.31;;;5.09;60.72
20009;BME280;10165;42.662;23.260;2023-02-04T09:07:59;93610.19;;;5.47;59.35
20009;BME280;10165;42.662;23.260;2023-02-04T09:10:26;93606.16;;;4.99;61.38
20009;BME280;10165;42.662;23.260;2023-02-04T09:12:53;93603.78;;;4.86;62.74
20009;BME280;10165;42.662;23.260;2023-02-04T09:15:22;93605.81;;;5.09;61.17
20009;BME280;10165;42.662;23.260;2023-02-04T09:17:52;93611.16;;;5.01;60.90
20009;BME280;10165;42.662;23.260;2023-02-04T09:20:21;93608.38;;;5.18;60.01
20009;BME280;10165;42.662;23.260;2023-02-04T09:22:47;93610.97;;;5.26;58.99
20009;BME280;10165;42.662;23.260;2023-02-04T09:25:15;93614.59;;;5.43;58.86
20009;BME280;10165;42.662;23.260;2023-02-04T09:27:42;93615.50;;;5.47;59.34
20009;BME280;10165;42.662;23.260;2023-02-04T09:30:09;93611.22;;;5.34;60.07
20009;BME280;10165;42.662;23.260;2023-02-04T09:32:36;93611.81;;;4.98;60.84
20009;BME280;10165;42.662;23.260;2023-02-04T09:35:03;93601.94;;;5.27;61.59
20009;BME280;10165;42.662;23.260;2023-02-04T09:37:29;93614.41;;;5.27;61.67
20009;BME280;10165;42.662;23.260;2023-02-04T09:39:56;93603.00;;;5.68;62.67
20009;BME280;10165;42.662;23.260;2023-02-04T09:42:24;93601.13;;;5.68;62.66
20009;BME280;10165;42.662;23.260;2023-02-04T09:44:51;93613.81;;;5.42;63.44
20009;BME280;10165;42.662;23.260;2023-02-04T09:47:21;93601.34;;;5.43;64.76
20009;BME280;10165;42.662;23.260;2023-02-04T09:49:49;93589.22;;;5.21;67.48
20009;BME280;10165;42.662;23.260;2023-02-04T09:52:17;93587.81;;;5.44;66.58
20009;BME280;10165;42.662;23.260;2023-02-04T09:54:45;93586.16;;;5.10;67.79
20009;BME280;10165;42.662;23.260;2023-02-04T09:57:14;93580.09;;;5.10;68.25
20009;BME280;10165;42.662;23.260;2023-02-04T09:59:43;93573.75;;;4.81;69.71
20009;BME280;10165;42.662;23.260;2023-02-04T10:02:23;93573.66;;;5.40;68.09
20009;BME280;10165;42.662;23.260;2023-02-04T10:04:51;93551.22;;;5.38;64.99
20009;BME280;10165;42.662;23.260;2023-02-04T10:07:20;93569.38;;;5.06;66.40
20009;BME280;10165;42.662;23.260;2023-02-04T10:09:51;93564.94;;;4.98;66.44
20009;BME280;10165;42.662;23.260;2023-02-04T10:12:20;93557.13;;;5.02;65.59
20009;BME280;10165;42.662;23.260;2023-02-04T10:14:47;93568.75;;;5.09;65.39
20009;BME280;10165;42.662;23.260;2023-02-04T10:17:19;93564.28;;;4.51;68.84
20009;BME280;10165;42.662;23.260;2023-02-04T10:19:48;93559.25;;;4.88;67.63
20009;BME280;10165;42.662;23.260;2023-02-04T10:22:17;93568.88;;;5.13;67.17
20009;BME280;10165;42.662;23.260;2023-02-04T10:24:44;93551.06;;;5.01;67.45
20009;BME280;10165;42.662;23.260;2023-02-04T10:27:12;93542.16;;;4.85;67.71
20009;BME280;10165;42.662;23.260;2023-02-04T10:29:57;93550.84;;;5.27;66.32
20009;BME280;10165;42.662;23.260;2023-02-04T10:32:29;93560.53;;;5.76;65.55
20009;BME280;10165;42.662;23.260;2023-02-04T10:35:01;93546.97;;;5.45;66.09
20009;BME280;10165;42.662;23.260;2023-02-04T10:37:28;93563.06;;;5.19;66.29
20009;BME280;10165;42.662;23.260;2023-02-04T10:39:56;93559.94;;;4.47;70.12
20009;BME280;10165;42.662;23.260;2023-02-04T10:42:25;93555.41;;;4.56;71.37
20009;BME280;10165;42.662;23.260;2023-02-04T10:44:52;93550.22;;;5.09;69.40
20009;BME280;10165;42.662;23.260;2023-02-04T10:47:25;93542.88;;;4.94;71.05
20009;BME280;10165;42.662;23.260;2023-02-04T10:50:16;93543.94;;;5.14;70.64
20009;BME280;10165;42.662;23.260;2023-02-04T10:52:47;93538.38;;;4.65;71.91
20009;BME280;10165;42.662;23.260;2023-02-04T10:55:20;93539.97;;;4.58;72.02
20009;BME280;10165;42.662;23.260;2023-02-04T10:57:50;93538.19;;;4.91;72.82
20009;BME280;10165;42.662;23.260;2023-02-04T11:00:19;93528.63;;;5.40;70.89
20009;BME280;10165;42.662;23.260;2023-02-04T11:03:04;93523.03;;;5.21;70.26
20009;BME280;10165;42.662;23.260;2023-02-04T11:05:34;93524.47;;;4.77;71.92
20009;BME280;10165;42.662;23.260;2023-02-04T11:08:03;93517.72;;;5.42;69.94
20009;BME280;10165;42.662;23.260;2023-02-04T11:10:45;93517.75;;;5.00;70.88
20009;BME280;10165;42.662;23.260;2023-02-04T11:13:24;93506.97;;;5.05;70.58
20009;BME280;10165;42.662;23.260;2023-02-04T11:18:51;93506.44;;;5.12;69.87
20009;BME280;10165;42.662;23.260;2023-02-04T11:21:40;93497.56;;;4.96;72.28
20009;BME280;10165;42.662;23.260;2023-02-04T11:26:51;93510.78;;;4.75;71.99
20009;BME280;10165;42.662;23.260;2023-02-04T11:29:30;93505.03;;;4.52;73.81
20009;BME280;10165;42.662;23.260;2023-02-04T11:32:06;93501.28;;;5.15;72.08
20009;BME280;10165;42.662;23.260;2023-02-04T11:34:51;93503.22;;;5.06;70.07
20009;BME280;10165;42.662;23.260;2023-02-04T11:37:34;93505.38;;;5.13;70.71
20009;BME280;10165;42.662;23.260;2023-02-04T11:40:13;93505.56;;;5.41;69.48
20009;BME280;10165;42.662;23.260;2023-02-04T11:42:46;93508.22;;;5.41;69.61
20009;BME280;10165;42.662;23.260;2023-02-04T11:45:23;93508.81;;;5.25;68.30
20009;BME280;10165;42.662;23.260;2023-02-04T11:47:50;93516.69;;;5.79;68.65
20009;BME280;10165;42.662;23.260;2023-02-04T11:50:35;93516.75;;;5.25;69.38
20009;BME280;10165;42.662;23.260;2023-02-04T11:53:04;93511.56;;;5.17;70.64
20009;BME280;10165;42.662;23.260;2023-02-04T11:55:34;93513.03;;;5.59;68.67
20009;BME280;10165;42.662;23.260;2023-02-04T11:58:01;93512.28;;;5.38;68.79
20009;BME280;10165;42.662;23.260;2023-02-04T12:00:30;93511.94;;;5.27;68.99
20009;BME280;10165;42.662;23.260;2023-02-04T12:03:02;93509.31;;;5.40;70.00
20009;BME280;10165;42.662;23.260;2023-02-04T12:05:43;93515.41;;;5.19;71.11
20009;BME280;10165;42.662;23.260;2023-02-04T12:10:59;93515.69;;;4.85;71.29
20009;BME280;10165;42.662;23.260;2023-02-04T12:13:28;93509.09;;;4.91;70.74
20009;BME280;10165;42.662;23.260;2023-02-04T12:16:06;93505.25;;;5.42;69.32
20009;BME280;10165;42.662;23.260;2023-02-04T12:18:33;93502.47;;;5.84;68.58
20009;BME280;10165;42.662;23.260;2023-02-04T12:21:02;93508.84;;;5.05;69.72
20009;BME280;10165;42.662;23.260;2023-02-04T12:23:30;93506.72;;;4.98;70.32
20009;BME280;10165;42.662;23.260;2023-02-04T12:25:56;93506.47;;;5.45;69.71
20009;BME280;10165;42.662;23.260;2023-02-04T12:28:24;93495.44;;;5.43;69.97
20009;BME280;10165;42.662;23.260;2023-02-04T12:30:51;93506.03;;;5.43;69.32
20009;BME280;10165;42.662;23.260;2023-02-04T12:33:18;93494.38;;;5.23;69.99
20009;BME280;10165;42.662;23.260;2023-02-04T12:35:45;93486.88;;;5.25;69.34
20009;BME280;10165;42.662;23.260;2023-02-04T12:38:11;93492.41;;;5.32;68.89
20009;BME280;10165;42.662;23.260;2023-02-04T12:40:38;93491.09;;;5.38;68.47
20009;BME280;10165;42.662;23.260;2023-02-04T12:43:05;93497.06;;;5.35;67.98
20009;BME280;10165;42.662;23.260;2023-02-04T12:45:32;93500.47;;;4.82;67.50
20009;BME280;10165;42.662;23.260;2023-02-04T12:47:59;93499.97;;;5.21;68.49
20009;BME280;10165;42.662;23.260;2023-02-04T12:50:26;93492.94;;;5.25;67.96
20009;BME280;10165;42.662;23.260;2023-02-04T12:52:56;93499.28;;;5.45;66.67
20009;BME280;10165;42.662;23.260;2023-02-04T12:55:26;93492.28;;;5.61;65.70
20009;BME280;10165;42.662;23.260;2023-02-04T12:57:53;93503.84;;;5.57;66.36
20009;BME280;10165;42.662;23.260;2023-02-04T13:00:22;93506.69;;;5.19;64.53
20009;BME280;10165;42.662;23.260;2023-02-04T13:02:51;93502.72;;;5.46;63.98
20009;BME280;10165;42.662;23.260;2023-02-04T13:05:20;93506.69;;;5.19;64.61
20009;BME280;10165;42.662;23.260;2023-02-04T13:07:47;93512.16;;;5.02;65.31
20009;BME280;10165;42.662;23.260;2023-02-04T13:10:14;93514.41;;;5.12;65.11
20009;BME280;10165;42.662;23.260;2023-02-04T13:12:41;93521.06;;;4.97;64.59